createdAt,value
2016-06-10T00:00:39.520Z,34.06
2016-06-10T00:01:39.539Z,34.06
2016-06-10T00:02:39.526Z,34.26
2016-06-10T00:03:39.701Z,33.97
2016-06-10T00:04:39.704Z,33.97
2016-06-10T00:05:39.677Z,33.78
2016-06-10T00:06:39.538Z,33.68
2016-06-10T00:07:39.902Z,34.26
2016-06-10T00:08:39.405Z,34.26
2016-06-10T00:09:39.611Z,33.68
2016-06-10T00:10:39.567Z,34.06
2016-06-10T00:11:39.633Z,34.26
2016-06-10T00:12:39.573Z,33.68
2016-06-10T00:13:39.592Z,33.87
2016-06-10T00:14:39.595Z,33.78
2016-06-10T00:15:39.598Z,34.16
2016-06-10T00:16:39.601Z,34.36
2016-06-10T00:17:39.605Z,34.16
2016-06-10T00:18:40.076Z,34.26
2016-06-10T00:19:39.610Z,33.78
2016-06-10T00:20:39.925Z,33.78
2016-06-10T00:21:39.679Z,34.45
2016-06-10T00:22:39.635Z,34.36
2016-06-10T00:23:39.637Z,34.45
2016-06-10T00:24:39.641Z,34.06
2016-06-10T00:25:39.660Z,34.36
2016-06-10T00:26:39.663Z,34.26
2016-06-10T00:27:39.666Z,34.26
2016-06-10T00:28:39.669Z,34.45
2016-06-10T00:29:40.625Z,34.55
2016-06-10T00:30:39.675Z,34.53
2016-06-10T00:31:40.584Z,34.55
2016-06-10T00:32:39.697Z,34.14
2016-06-10T00:33:39.684Z,34.16
2016-06-10T00:34:39.547Z,34.34
2016-06-10T00:35:39.722Z,34.55
2016-06-10T00:36:39.710Z,34.34
2016-06-10T00:37:39.713Z,34.74
2016-06-10T00:38:39.716Z,34.34
2016-06-10T00:39:39.719Z,34.36
2016-06-10T00:40:39.581Z,34.44
2016-06-10T00:41:39.740Z,34.26
2016-06-10T00:42:39.728Z,34.53
2016-06-10T00:43:39.747Z,34.92
2016-06-10T00:44:39.749Z,34.82
2016-06-10T00:45:39.752Z,35.02
2016-06-10T00:46:39.756Z,34.92
2016-06-10T00:47:39.759Z,34.63
2016-06-10T00:48:39.778Z,34.16
2016-06-10T00:49:39.780Z,34.84
2016-06-10T00:50:39.784Z,34.72
2016-06-10T00:51:39.787Z,35.02
2016-06-10T00:52:39.790Z,35.02
2016-06-10T00:53:39.793Z,35.4
2016-06-10T00:54:40.046Z,35.02
2016-06-10T00:55:39.799Z,34.92
2016-06-10T00:56:39.802Z,35.11
2016-06-10T00:57:39.805Z,35.02
2016-06-10T00:58:39.808Z,34.92
2016-06-10T00:59:39.827Z,34.92
2016-06-10T01:00:39.830Z,35.3
2016-06-10T01:01:39.818Z,35.11
2016-06-10T01:02:39.930Z,35.21
2016-06-10T01:03:39.824Z,35.5
2016-06-10T01:04:39.874Z,35.5
2016-06-10T01:05:39.830Z,35.3
2016-06-10T01:06:39.848Z,35.4
2016-06-10T01:07:39.851Z,35.4
2016-06-10T01:08:39.839Z,35.3
2016-06-10T01:09:39.857Z,35.3
2016-06-10T01:10:39.861Z,35.21
2016-06-10T01:11:39.849Z,35.4
2016-06-10T01:12:39.867Z,35.5
2016-06-10T01:13:40.417Z,35.59
2016-06-10T01:14:39.873Z,35.3
2016-06-10T01:15:40.126Z,35.5
2016-06-10T01:16:39.879Z,35.4
2016-06-10T01:17:39.882Z,35.5
2016-06-10T01:18:39.885Z,35.3
2016-06-10T01:19:39.888Z,35.4
2016-06-10T01:20:39.892Z,35.5
2016-06-10T01:21:39.894Z,35.59
2016-06-10T01:22:39.897Z,35.4
2016-06-10T01:23:39.900Z,35.4
2016-06-10T01:24:40.951Z,35.4
2016-06-10T01:25:39.750Z,35.69
2016-06-10T01:26:40.660Z,35.88
2016-06-10T01:27:39.912Z,36.07
2016-06-10T01:28:39.916Z,35.69
2016-06-10T01:29:39.918Z,36.07
2016-06-10T01:30:39.922Z,36.07
2016-06-10T01:31:39.940Z,35.69
2016-06-10T01:32:39.928Z,35.69
2016-06-10T01:33:39.931Z,35.88
2016-06-10T01:34:39.778Z,35.88
2016-06-10T01:35:39.937Z,35.88
2016-06-10T01:36:39.941Z,35.98
2016-06-10T01:37:41.053Z,35.69
2016-06-10T01:38:39.962Z,35.59
2016-06-10T01:39:40.029Z,35.59
2016-06-10T01:40:39.797Z,35.88
2016-06-10T01:41:39.955Z,35.98
2016-06-10T01:42:39.959Z,36.36
2016-06-10T01:43:39.962Z,36.36
2016-06-10T01:44:39.965Z,36.07
2016-06-10T01:45:39.968Z,35.78
2016-06-10T01:46:39.971Z,35.78
2016-06-10T01:47:39.974Z,35.69
2016-06-10T01:48:39.977Z,36.36
2016-06-10T01:49:39.980Z,36.36
2016-06-10T01:50:39.983Z,36.44
2016-06-10T01:51:39.987Z,36.44
2016-06-10T01:52:39.990Z,36.44
2016-06-10T01:53:39.992Z,36.46
2016-06-10T01:54:40.121Z,36.46
2016-06-10T01:55:39.999Z,36.27
2016-06-10T01:56:40.001Z,36.55
2016-06-10T01:57:40.162Z,36.36
2016-06-10T01:58:40.008Z,36.63
2016-06-10T01:59:40.605Z,36.46
2016-06-10T02:00:40.014Z,36.65
2016-06-10T02:01:40.017Z,36.93
2016-06-10T02:02:40.020Z,36.63
2016-06-10T02:03:40.023Z,36.54
2016-06-10T02:04:40.073Z,36.55
2016-06-10T02:05:40.030Z,36.65
2016-06-10T02:06:40.032Z,36.27
2016-06-10T02:07:40.036Z,36.65
2016-06-10T02:08:40.039Z,36.73
2016-06-10T02:09:40.041Z,36.75
2016-06-10T02:10:41.139Z,36.36
2016-06-10T02:11:40.094Z,36.46
2016-06-10T02:12:40.098Z,36.36
2016-06-10T02:13:40.054Z,36.75
2016-06-10T02:14:40.057Z,36.63
2016-06-10T02:15:40.060Z,36.83
2016-06-10T02:16:40.063Z,36.73
2016-06-10T02:17:40.067Z,36.75
2016-06-10T02:18:40.069Z,36.65
2016-06-10T02:19:40.119Z,36.46
2016-06-10T02:20:40.075Z,36.55
2016-06-10T02:21:40.578Z,36.65
2016-06-10T02:22:40.082Z,36.65
2016-06-10T02:23:40.084Z,36.55
2016-06-10T02:24:40.088Z,36.36
2016-06-10T02:25:40.107Z,36.46
2016-06-10T02:26:40.110Z,36.46
2016-06-10T02:27:40.097Z,36.55
2016-06-10T02:28:40.100Z,36.55
2016-06-10T02:29:40.103Z,36.94
2016-06-10T02:30:40.107Z,36.65
2016-06-10T02:31:40.109Z,36.85
2016-06-10T02:32:40.972Z,36.85
2016-06-10T02:33:40.116Z,36.75
2016-06-10T02:34:40.276Z,36.65
2016-06-10T02:35:40.121Z,36.36
2016-06-10T02:36:40.124Z,36.46
2016-06-10T02:37:40.144Z,36.27
2016-06-10T02:38:40.185Z,36.75
2016-06-10T02:39:40.225Z,36.94
2016-06-10T02:40:40.454Z,36.75
2016-06-10T02:41:40.323Z,37.12
2016-06-10T02:42:40.338Z,37.41
2016-06-10T02:43:40.979Z,37.41
2016-06-10T02:44:40.371Z,37.7
2016-06-10T02:45:40.388Z,37.79
2016-06-10T02:46:40.405Z,37.79
2016-06-10T02:47:40.417Z,37.31
2016-06-10T02:48:40.425Z,36.85
2016-06-10T02:49:40.434Z,37.13
2016-06-10T02:50:40.441Z,37.13
2016-06-10T02:51:40.293Z,37.23
2016-06-10T02:52:40.455Z,37.41
2016-06-10T02:53:40.460Z,37.79
2016-06-10T02:54:40.465Z,37.7
2016-06-10T02:55:40.470Z,37.5
2016-06-10T02:56:41.116Z,37.31
2016-06-10T02:57:40.480Z,37.71
2016-06-10T02:58:40.483Z,37.7
2016-06-10T02:59:40.487Z,37.6
2016-06-10T03:00:40.491Z,37.41
2016-06-10T03:01:40.495Z,37.5
2016-06-10T03:02:40.484Z,38.18
2016-06-10T03:03:40.501Z,38.28
2016-06-10T03:04:40.504Z,38.56
2016-06-10T03:05:41.462Z,38.54
2016-06-10T03:06:40.495Z,38.45
2016-06-10T03:07:40.905Z,38.37
2016-06-10T03:08:40.502Z,38.56
2016-06-10T03:09:40.505Z,39.03
2016-06-10T03:10:40.617Z,38.93
2016-06-10T03:11:40.526Z,38.93
2016-06-10T03:12:40.514Z,39.12
2016-06-10T03:13:40.564Z,38.54
2016-06-10T03:14:40.521Z,38.64
2016-06-10T03:15:40.523Z,38.64
2016-06-10T03:16:40.526Z,38.46
2016-06-10T03:17:40.530Z,38.54
2016-06-10T03:18:41.469Z,38.28
2016-06-10T03:19:40.535Z,38.45
2016-06-10T03:20:40.522Z,38.18
2016-06-10T03:21:40.526Z,38.08
2016-06-10T03:22:40.529Z,37.79
2016-06-10T03:23:40.531Z,38.28
2016-06-10T03:24:40.535Z,38.37
2016-06-10T03:25:40.538Z,38.56
2016-06-10T03:26:40.541Z,38.28
2016-06-10T03:27:40.560Z,38.46
2016-06-10T03:28:40.391Z,38.37
2016-06-10T03:29:41.097Z,38.66
2016-06-10T03:30:40.554Z,38.46
2016-06-10T03:31:40.556Z,38.64
2016-06-10T03:32:40.559Z,38.64
2016-06-10T03:33:40.563Z,39.03
2016-06-10T03:34:40.565Z,38.83
2016-06-10T03:35:40.568Z,39.03
2016-06-10T03:36:40.557Z,38.64
2016-06-10T03:37:40.560Z,38.37
2016-06-10T03:38:40.563Z,38.66
2016-06-10T03:39:40.581Z,38.66
2016-06-10T03:40:41.444Z,38.66
2016-06-10T03:41:40.572Z,38.66
2016-06-10T03:42:40.435Z,38.66
2016-06-10T03:43:40.578Z,38.54
2016-06-10T03:44:40.582Z,38.83
2016-06-10T03:45:40.585Z,38.93
2016-06-10T03:46:40.602Z,39.12
2016-06-10T03:47:40.622Z,38.93
2016-06-10T03:48:40.594Z,38.93
2016-06-10T03:49:40.597Z,38.83
2016-06-10T03:50:40.600Z,38.83
2016-06-10T03:51:41.196Z,39.22
2016-06-10T03:52:40.606Z,38.93
2016-06-10T03:53:40.593Z,39.22
2016-06-10T03:54:40.596Z,39.22
2016-06-10T03:55:41.005Z,39.12
2016-06-10T03:56:40.603Z,39.61
2016-06-10T03:57:40.606Z,39.41
2016-06-10T03:58:40.609Z,39.79
2016-06-10T03:59:40.611Z,38.83
2016-06-10T04:00:40.615Z,39.41
2016-06-10T04:01:40.618Z,40.09
2016-06-10T04:02:41.417Z,39.22
2016-06-10T04:03:40.624Z,39.79
2016-06-10T04:04:40.611Z,39.51
2016-06-10T04:05:40.677Z,39.7
2016-06-10T04:06:41.117Z,39.7
2016-06-10T04:07:40.636Z,39.12
2016-06-10T04:08:40.623Z,39.31
2016-06-10T04:09:40.626Z,39.89
2016-06-10T04:10:40.817Z,39.7
2016-06-10T04:11:40.648Z,39.7
2016-06-10T04:12:40.636Z,39.99
2016-06-10T04:13:40.686Z,39.61
2016-06-10T04:14:40.688Z,39.7
2016-06-10T04:15:40.645Z,39.99
2016-06-10T04:16:40.632Z,39.89
2016-06-10T04:17:41.339Z,39.51
2016-06-10T04:18:40.639Z,39.7
2016-06-10T04:19:40.642Z,39.51
2016-06-10T04:20:40.645Z,39.7
2016-06-10T04:21:40.649Z,39.61
2016-06-10T04:22:40.494Z,39.41
2016-06-10T04:23:40.655Z,39.7
2016-06-10T04:24:40.657Z,39.51
2016-06-10T04:25:40.661Z,39.79
2016-06-10T04:26:41.539Z,39.61
2016-06-10T04:27:40.651Z,39.89
2016-06-10T04:28:40.857Z,39.51
2016-06-10T04:29:40.657Z,39.7
2016-06-10T04:30:40.660Z,39.79
2016-06-10T04:31:40.663Z,39.51
2016-06-10T04:32:40.666Z,39.12
2016-06-10T04:33:40.669Z,39.51
2016-06-10T04:34:40.672Z,39.79
2016-06-10T04:35:40.675Z,39.7
2016-06-10T04:36:40.678Z,39.7
2016-06-10T04:37:40.681Z,39.51
2016-06-10T04:38:40.668Z,39.61
2016-06-10T04:39:41.343Z,39.51
2016-06-10T04:40:41.378Z,39.89
2016-06-10T04:41:40.694Z,39.89
2016-06-10T04:42:40.680Z,39.61
2016-06-10T04:43:40.684Z,39.51
2016-06-10T04:44:40.703Z,39.51
2016-06-10T04:45:40.690Z,39.51
2016-06-10T04:46:40.693Z,39.03
2016-06-10T04:47:40.696Z,39.12
2016-06-10T04:48:40.699Z,39.51
2016-06-10T04:49:40.687Z,39.61
2016-06-10T04:50:41.252Z,38.93
2016-06-10T04:51:40.708Z,39.04
2016-06-10T04:52:40.697Z,38.83
2016-06-10T04:53:40.699Z,39.03
2016-06-10T04:54:40.703Z,38.85
2016-06-10T04:55:41.486Z,38.83
2016-06-10T04:56:40.709Z,38.64
2016-06-10T04:57:40.712Z,38.37
2016-06-10T04:58:40.715Z,38.46
2016-06-10T04:59:40.718Z,38.95
2016-06-10T05:00:40.721Z,38.93
2016-06-10T05:01:41.521Z,38.83
2016-06-10T05:02:40.728Z,38.93
2016-06-10T05:03:40.730Z,39.03
2016-06-10T05:04:40.733Z,39.14
2016-06-10T05:05:40.736Z,39.31
2016-06-10T05:06:40.724Z,38.93
2016-06-10T05:07:40.742Z,38.56
2016-06-10T05:08:40.745Z,38.85
2016-06-10T05:09:40.749Z,39.41
2016-06-10T05:10:40.736Z,39.7
2016-06-10T05:11:40.754Z,39.51
2016-06-10T05:12:40.945Z,39.7
2016-06-10T05:13:40.745Z,39.51
2016-06-10T05:14:40.748Z,39.31
2016-06-10T05:15:40.751Z,39.51
2016-06-10T05:16:40.895Z,39.51
2016-06-10T05:17:40.757Z,39.7
2016-06-10T05:18:40.760Z,39.79
2016-06-10T05:19:40.764Z,39.61
2016-06-10T05:20:40.767Z,39.51
2016-06-10T05:21:40.769Z,39.89
2016-06-10T05:22:40.773Z,38.93
2016-06-10T05:23:41.011Z,39.31
2016-06-10T05:24:40.764Z,39.22
2016-06-10T05:25:41.688Z,39.31
2016-06-10T05:26:40.848Z,39.51
2016-06-10T05:27:40.773Z,39.89
2016-06-10T05:28:40.776Z,39.41
2016-06-10T05:29:40.779Z,39.41
2016-06-10T05:30:40.782Z,38.93
2016-06-10T05:31:40.785Z,39.03
2016-06-10T05:32:40.788Z,39.03
2016-06-10T05:33:40.634Z,39.12
2016-06-10T05:34:41.091Z,38.56
2016-06-10T05:35:40.641Z,38.54
2016-06-10T05:36:40.785Z,38.37
2016-06-10T05:37:40.804Z,38.28
2016-06-10T05:38:40.791Z,38.56
2016-06-10T05:39:40.794Z,38.18
2016-06-10T05:40:40.797Z,38.08
2016-06-10T05:41:41.097Z,37.79
2016-06-10T05:42:40.803Z,38.1
2016-06-10T05:43:40.823Z,38.08
2016-06-10T05:44:40.996Z,38.37
2016-06-10T05:45:41.218Z,38.66
2016-06-10T05:46:40.815Z,38.95
2016-06-10T05:47:41.693Z,39.24
2016-06-10T05:48:40.822Z,39.03
2016-06-10T05:49:40.934Z,39.22
2016-06-10T05:50:40.828Z,39.51
2016-06-10T05:51:40.830Z,39.03
2016-06-10T05:52:40.834Z,39.12
2016-06-10T05:53:40.837Z,39.03
2016-06-10T05:54:40.840Z,39.03
2016-06-10T05:55:40.843Z,39.12
2016-06-10T05:56:40.846Z,39.03
2016-06-10T05:57:40.849Z,39.12
2016-06-10T05:58:40.853Z,39.51
2016-06-10T05:59:40.840Z,39.51
2016-06-10T06:00:41.702Z,39.99
2016-06-10T06:01:40.861Z,39.41
2016-06-10T06:02:40.848Z,38.93
2016-06-10T06:03:40.852Z,38.95
2016-06-10T06:04:40.855Z,38.66
2016-06-10T06:05:40.857Z,38.46
2016-06-10T06:06:40.861Z,38.66
2016-06-10T06:07:40.708Z,38.56
2016-06-10T06:08:40.867Z,38.95
2016-06-10T06:09:41.730Z,38.95
2016-06-10T06:10:40.873Z,39.03
2016-06-10T06:11:41.017Z,38.64
2016-06-10T06:12:40.879Z,38.66
2016-06-10T06:13:40.883Z,38.66
2016-06-10T06:14:40.932Z,38.56
2016-06-10T06:15:40.905Z,38.46
2016-06-10T06:16:40.939Z,38.46
2016-06-10T06:17:40.895Z,38.66
2016-06-10T06:18:40.898Z,38.66
2016-06-10T06:19:40.901Z,38.66
2016-06-10T06:20:42.014Z,38.66
2016-06-10T06:21:40.892Z,38.85
2016-06-10T06:22:41.254Z,38.37
2016-06-10T06:23:40.898Z,38.56
2016-06-10T06:24:40.901Z,38.64
2016-06-10T06:25:40.904Z,38.46
2016-06-10T06:26:41.188Z,38.46
2016-06-10T06:27:40.911Z,38.46
2016-06-10T06:28:40.914Z,38.56
2016-06-10T06:29:40.916Z,38.46
2016-06-10T06:30:40.919Z,38.08
2016-06-10T06:31:41.516Z,38.18
2016-06-10T06:32:40.941Z,38.2
2016-06-10T06:33:40.929Z,38.18
2016-06-10T06:34:40.932Z,38.2
2016-06-10T06:35:40.935Z,38.29
2016-06-10T06:36:40.938Z,38.46
2016-06-10T06:37:40.941Z,39.04
2016-06-10T06:38:40.944Z,39.22
2016-06-10T06:39:40.947Z,39.14
2016-06-10T06:40:40.951Z,39.14
2016-06-10T06:41:41.671Z,38.66
2016-06-10T06:42:40.956Z,38.18
2016-06-10T06:43:40.960Z,38.39
2016-06-10T06:44:41.213Z,38.58
2016-06-10T06:45:40.966Z,38.56
2016-06-10T06:46:41.703Z,38.66
2016-06-10T06:47:40.972Z,38.46
2016-06-10T06:48:40.818Z,38.1
2016-06-10T06:49:40.978Z,37.81
2016-06-10T06:50:40.856Z,37.52
2016-06-10T06:51:40.985Z,37.15
2016-06-10T06:52:40.987Z,37.62
2016-06-10T06:53:40.990Z,37.71
2016-06-10T06:54:40.993Z,37.52
2016-06-10T06:55:40.996Z,37.35
2016-06-10T06:56:41.125Z,37.35
2016-06-10T06:57:42.112Z,37.35
2016-06-10T06:58:41.006Z,36.77
2016-06-10T06:59:41.023Z,36.5
2016-06-10T07:00:41.012Z,36.4
2016-06-10T07:01:41.015Z,36.21
2016-06-10T07:02:41.033Z,36.11
2016-06-10T07:03:41.036Z,36.21
2016-06-10T07:04:41.040Z,36.38
2016-06-10T07:05:41.042Z,36.57
2016-06-10T07:06:41.045Z,36.5
2016-06-10T07:07:41.049Z,36.3
2016-06-10T07:08:41.521Z,35.72
2016-06-10T07:09:41.071Z,35.36
2016-06-10T07:10:41.073Z,34.97
2016-06-10T07:11:41.077Z,34.68
2016-06-10T07:12:41.080Z,35.16
2016-06-10T07:13:41.083Z,35.84
2016-06-10T07:14:41.164Z,36.01
2016-06-10T07:15:41.105Z,35.44
2016-06-10T07:16:41.108Z,35.36
2016-06-10T07:17:41.111Z,35.06
2016-06-10T07:18:41.114Z,35.16
2016-06-10T07:19:42.023Z,35.05
2016-06-10T07:20:41.136Z,35.16
2016-06-10T07:21:41.138Z,35.36
2016-06-10T07:22:41.141Z,36.3
2016-06-10T07:23:41.144Z,35.44
2016-06-10T07:24:41.148Z,35.06
2016-06-10T07:25:41.151Z,35.34
2016-06-10T07:26:40.998Z,35.53
2016-06-10T07:27:41.001Z,36.4
2016-06-10T07:28:41.004Z,36.67
2016-06-10T07:29:41.179Z,35.8
2016-06-10T07:30:41.683Z,35.44
2016-06-10T07:31:41.185Z,34.78
2016-06-10T07:32:41.188Z,35.14
2016-06-10T07:33:41.192Z,35.63
2016-06-10T07:34:41.194Z,35.44
2016-06-10T07:35:41.197Z,35.24
2016-06-10T07:36:41.215Z,34.87
2016-06-10T07:37:41.204Z,34.48
2016-06-10T07:38:41.222Z,34
2016-06-10T07:39:41.069Z,34.29
2016-06-10T07:40:41.228Z,34.39
2016-06-10T07:41:42.341Z,33.92
2016-06-10T07:42:41.250Z,34.41
2016-06-10T07:43:41.738Z,34.68
2016-06-10T07:44:41.256Z,34.29
2016-06-10T07:45:41.259Z,33.63
2016-06-10T07:46:41.278Z,33.83
2016-06-10T07:47:41.265Z,33.54
2016-06-10T07:48:41.269Z,33.72
2016-06-10T07:49:41.287Z,33.54
2016-06-10T07:50:41.291Z,34.39
2016-06-10T07:51:41.293Z,34.95
2016-06-10T07:52:41.889Z,34.29
2016-06-10T07:53:41.300Z,34.58
2016-06-10T07:54:41.318Z,34.38
2016-06-10T07:55:41.306Z,34.28
2016-06-10T07:56:41.762Z,34.66
2016-06-10T07:57:41.328Z,33.98
2016-06-10T07:58:41.330Z,32.82
2016-06-10T07:59:41.333Z,34.86
2016-06-10T08:00:41.337Z,33.31
2016-06-10T08:01:41.340Z,32.23
2016-06-10T08:02:41.342Z,33.1
2016-06-10T08:03:42.424Z,33.58
2016-06-10T08:04:41.365Z,34.36
2016-06-10T08:05:41.602Z,33.6
2016-06-10T08:06:41.387Z,33.33
2016-06-10T08:07:41.374Z,32.46
2016-06-10T08:08:41.361Z,33.33
2016-06-10T08:09:42.052Z,32.17
2016-06-10T08:10:41.383Z,32.94
2016-06-10T08:11:41.386Z,32.75
2016-06-10T08:12:41.249Z,32.76
2016-06-10T08:13:41.409Z,32.67
2016-06-10T08:14:42.020Z,31.99
2016-06-10T08:15:41.415Z,32.57
2016-06-10T08:16:41.433Z,32.67
2016-06-10T08:17:41.279Z,32.47
2016-06-10T08:18:41.439Z,32.38
2016-06-10T08:19:41.442Z,31.51
2016-06-10T08:20:41.445Z,31.3
2016-06-10T08:21:41.448Z,32.46
2016-06-10T08:22:41.467Z,31.8
2016-06-10T08:23:41.470Z,31.89
2016-06-10T08:24:41.363Z,31.22
2016-06-10T08:25:41.476Z,30.63
2016-06-10T08:26:41.494Z,31.49
2016-06-10T08:27:41.794Z,29.57
2016-06-10T08:28:41.500Z,29.08
2016-06-10T08:29:42.269Z,31.01
2016-06-10T08:30:41.506Z,30.52
2016-06-10T08:31:41.620Z,31.1
2016-06-10T08:32:41.512Z,31.4
2016-06-10T08:33:41.531Z,31.02
2016-06-10T08:34:41.534Z,30.93
2016-06-10T08:35:41.554Z,30.15
2016-06-10T08:36:41.557Z,30.63
2016-06-10T08:37:41.544Z,30.44
2016-06-10T08:38:41.563Z,30.44
2016-06-10T08:39:41.566Z,30.05
2016-06-10T08:40:41.569Z,30.35
2016-06-10T08:41:42.135Z,29.38
2016-06-10T08:42:41.825Z,29.38
2016-06-10T08:43:41.593Z,28.61
2016-06-10T08:44:41.596Z,30.82
2016-06-10T08:45:41.599Z,29.17
2016-06-10T08:46:41.603Z,29.46
2016-06-10T08:47:41.622Z,30.04
2016-06-10T08:48:41.625Z,29.56
2016-06-10T08:49:41.972Z,29.96
2016-06-10T08:50:41.631Z,30.25
2016-06-10T08:51:41.634Z,30.05
2016-06-10T08:52:41.653Z,30.15
2016-06-10T08:53:41.656Z,29.09
2016-06-10T08:54:41.660Z,29.47
2016-06-10T08:55:41.678Z,29.09
2016-06-10T08:56:41.758Z,29.27
2016-06-10T08:57:41.528Z,29.19
2016-06-10T08:58:41.687Z,29.19
2016-06-10T08:59:41.690Z,28.99
2016-06-10T09:00:42.349Z,28.51
2016-06-10T09:01:41.712Z,28.7
2016-06-10T09:02:41.715Z,28.8
2016-06-10T09:03:41.718Z,28.51
2016-06-10T09:04:41.721Z,28.89
2016-06-10T09:05:41.740Z,27.55
2016-06-10T09:06:41.743Z,27.25
2016-06-10T09:07:41.745Z,27.62
2016-06-10T09:08:41.748Z,27.62
2016-06-10T09:09:41.751Z,27.72
2016-06-10T09:10:41.770Z,28.69
2016-06-10T09:11:42.914Z,27.34
2016-06-10T09:12:41.776Z,27.62
2016-06-10T09:13:41.780Z,27.62
2016-06-10T09:14:41.783Z,27.44
2016-06-10T09:15:42.848Z,27.35
2016-06-10T09:16:41.789Z,27.73
2016-06-10T09:17:41.808Z,25.9
2016-06-10T09:18:41.811Z,26.87
2016-06-10T09:19:41.814Z,26.77
2016-06-10T09:20:41.817Z,25.9
2016-06-10T09:21:41.820Z,26.39
2016-06-10T09:22:41.885Z,25.9
2016-06-10T09:23:41.889Z,26.57
2016-06-10T09:24:42.095Z,26.39
2016-06-10T09:25:41.848Z,26.29
2016-06-10T09:26:42.898Z,26.57
2016-06-10T09:27:42.417Z,25.81
2016-06-10T09:28:41.872Z,26.09
2016-06-10T09:29:41.720Z,25.9
2016-06-10T09:30:41.879Z,25.81
2016-06-10T09:31:41.882Z,24.93
2016-06-10T09:32:41.902Z,25.23
2016-06-10T09:33:41.904Z,25.42
2016-06-10T09:34:41.922Z,25.61
2016-06-10T09:35:41.910Z,24.45
2016-06-10T09:36:41.928Z,23.87
2016-06-10T09:37:43.072Z,24.55
2016-06-10T09:38:41.934Z,24.73
2016-06-10T09:39:41.938Z,23.39
2016-06-10T09:40:41.941Z,22.61
2016-06-10T09:41:41.960Z,22.22
2016-06-10T09:42:41.822Z,23.66
2016-06-10T09:43:41.966Z,23.29
2016-06-10T09:44:41.984Z,23.29
2016-06-10T09:45:41.816Z,23.49
2016-06-10T09:46:42.131Z,23.29
2016-06-10T09:47:42.009Z,23.29
2016-06-10T09:48:42.576Z,23.97
2016-06-10T09:49:42.000Z,23.19
2016-06-10T09:50:42.002Z,24.16
2016-06-10T09:51:42.006Z,23.97
2016-06-10T09:52:42.025Z,22.42
2016-06-10T09:53:42.028Z,22.71
2016-06-10T09:54:42.031Z,23
2016-06-10T09:55:42.034Z,21.94
2016-06-10T09:56:42.053Z,19.23
2016-06-10T09:57:42.134Z,19.71
2016-06-10T09:58:42.059Z,20.77
2016-06-10T09:59:42.718Z,20.78
2016-06-10T10:00:42.065Z,21.55
2016-06-10T10:01:42.068Z,21.84
2016-06-10T10:02:42.071Z,22.91
2016-06-10T10:03:41.918Z,21.94
2016-06-10T10:04:42.093Z,22.91
2016-06-10T10:05:42.096Z,20.87
2016-06-10T10:06:42.099Z,20.01
2016-06-10T10:07:42.102Z,21.55
2016-06-10T10:08:42.121Z,20.59
2016-06-10T10:09:42.124Z,20.1
2016-06-10T10:10:43.236Z,21.44
2016-06-10T10:11:42.130Z,21.84
2016-06-10T10:12:42.149Z,22.23
2016-06-10T10:13:42.152Z,22.71
2016-06-10T10:14:42.155Z,21.84
2016-06-10T10:15:42.159Z,21.75
2016-06-10T10:16:42.161Z,20.79
2016-06-10T10:17:42.164Z,21.66
2016-06-10T10:18:42.182Z,21.66
2016-06-10T10:19:42.186Z,21.75
2016-06-10T10:20:42.189Z,21.95
2016-06-10T10:21:42.894Z,22.13
2016-06-10T10:22:42.258Z,24.46
2016-06-10T10:23:42.214Z,23.21
2016-06-10T10:24:42.217Z,23.01
2016-06-10T10:25:42.220Z,24.17
2016-06-10T10:26:42.067Z,22.82
2016-06-10T10:27:43.085Z,25.72
2016-06-10T10:28:42.244Z,23.3
2016-06-10T10:29:42.247Z,22.53
2016-06-10T10:30:42.250Z,22.33
2016-06-10T10:31:42.253Z,24.35
2016-06-10T10:32:43.256Z,25.32
2016-06-10T10:33:42.276Z,23.3
2016-06-10T10:34:42.279Z,23.3
2016-06-10T10:35:42.282Z,22.91
2016-06-10T10:36:42.285Z,23.4
2016-06-10T10:37:42.304Z,22.24
2016-06-10T10:38:42.291Z,22.91
2016-06-10T10:39:42.310Z,23.1
2016-06-10T10:40:42.314Z,23.68
2016-06-10T10:41:42.317Z,23.3
2016-06-10T10:42:42.929Z,24.08
2016-06-10T10:43:42.822Z,23.21
2016-06-10T10:44:42.341Z,22.24
2016-06-10T10:45:42.344Z,22.13
2016-06-10T10:46:42.409Z,21.55
2016-06-10T10:47:42.349Z,21.75
2016-06-10T10:48:42.352Z,22.13
2016-06-10T10:49:42.372Z,23.39
2016-06-10T10:50:42.359Z,21.84
2016-06-10T10:51:42.378Z,21.94
2016-06-10T10:52:42.381Z,22.81
2016-06-10T10:53:42.368Z,21.95
2016-06-10T10:54:43.340Z,22.05
2016-06-10T10:55:42.235Z,21.85
2016-06-10T10:56:42.394Z,22.05
2016-06-10T10:57:42.413Z,23.79
2016-06-10T10:58:43.212Z,22.72
2016-06-10T10:59:42.418Z,22.24
2016-06-10T11:00:42.421Z,21.08
2016-06-10T11:01:42.424Z,23.4
2016-06-10T11:02:42.443Z,23.21
2016-06-10T11:03:42.446Z,23.5
2016-06-10T11:04:42.293Z,22.33
2016-06-10T11:05:42.452Z,23.01
2016-06-10T11:06:42.455Z,23.01
2016-06-10T11:07:42.474Z,20.31
2016-06-10T11:08:42.477Z,21.56
2016-06-10T11:09:43.574Z,21.75
2016-06-10T11:10:42.484Z,21.08
2016-06-10T11:11:42.486Z,21.66
2016-06-10T11:12:43.552Z,21.27
2016-06-10T11:13:42.351Z,21.75
2016-06-10T11:14:42.510Z,23.01
2016-06-10T11:15:42.514Z,23.11
2016-06-10T11:16:42.517Z,20.79
2016-06-10T11:17:42.536Z,20.89
2016-06-10T11:18:42.539Z,21.66
2016-06-10T11:19:42.542Z,21.66
2016-06-10T11:20:43.296Z,21.85
2016-06-10T11:21:42.549Z,21.17
2016-06-10T11:22:42.551Z,21.95
2016-06-10T11:23:42.571Z,22.14
2016-06-10T11:24:42.463Z,23.21
2016-06-10T11:25:42.624Z,21.95
2016-06-10T11:26:42.580Z,23.69
2016-06-10T11:27:42.614Z,22.72
2016-06-10T11:28:42.601Z,22.53
2016-06-10T11:29:42.603Z,21.85
2016-06-10T11:30:42.607Z,22.14
2016-06-10T11:31:43.720Z,24.08
2016-06-10T11:32:42.613Z,23.88
2016-06-10T11:33:42.476Z,23.3
2016-06-10T11:34:42.635Z,23.12
2016-06-10T11:35:42.638Z,23.3
2016-06-10T11:36:42.641Z,22.25
2016-06-10T11:37:42.644Z,23.01
2016-06-10T11:38:42.664Z,24.46
2016-06-10T11:39:42.667Z,23.3
2016-06-10T11:40:42.669Z,23.3
2016-06-10T11:41:42.672Z,23.79
2016-06-10T11:42:43.332Z,23.3
2016-06-10T11:43:42.709Z,23.01
2016-06-10T11:44:42.751Z,23.4
2016-06-10T11:45:42.793Z,25.24
2016-06-10T11:46:42.836Z,24.38
2016-06-10T11:47:42.894Z,24.09
2016-06-10T11:48:42.926Z,23.22
2016-06-10T11:49:42.944Z,24.08
2016-06-10T11:50:42.961Z,23.41
2016-06-10T11:51:42.979Z,23.32
2016-06-10T11:52:43.011Z,25.14
2016-06-10T11:53:44.134Z,23.99
2016-06-10T11:54:43.032Z,23.32
2016-06-10T11:55:42.900Z,23.41
2016-06-10T11:56:43.049Z,23.41
2016-06-10T11:57:43.073Z,23.4
2016-06-10T11:58:43.080Z,22.82
2016-06-10T11:59:43.084Z,23.3
2016-06-10T12:00:43.089Z,23.98
2016-06-10T12:01:43.095Z,23.79
2016-06-10T12:02:43.100Z,23.3
2016-06-10T12:03:43.120Z,24.08
2016-06-10T12:04:43.779Z,24.37
2016-06-10T12:05:43.127Z,24.08
2016-06-10T12:06:43.145Z,24.08
2016-06-10T12:07:43.134Z,24.27
2016-06-10T12:08:43.152Z,24.57
2016-06-10T12:09:43.155Z,24.46
2016-06-10T12:10:43.159Z,24.27
2016-06-10T12:11:43.163Z,24.67
2016-06-10T12:12:43.338Z,23.98
2016-06-10T12:13:43.811Z,24.66
2016-06-10T12:14:43.188Z,24.17
2016-06-10T12:15:44.192Z,24.46
2016-06-10T12:16:43.194Z,24.46
2016-06-10T12:17:43.214Z,24.18
2016-06-10T12:18:43.201Z,25.14
2016-06-10T12:19:43.204Z,25.24
2016-06-10T12:20:43.223Z,24.66
2016-06-10T12:21:43.226Z,24.17
2016-06-10T12:22:43.072Z,24.48
2016-06-10T12:23:43.248Z,25.63
2016-06-10T12:24:43.267Z,24.27
2016-06-10T12:25:43.269Z,23.3
2016-06-10T12:26:43.662Z,23.59
2016-06-10T12:27:43.260Z,24.85
2016-06-10T12:28:43.434Z,24.17
2016-06-10T12:29:43.282Z,23.3
2016-06-10T12:30:43.285Z,23.41
2016-06-10T12:31:43.287Z,24.08
2016-06-10T12:32:43.290Z,24.37
2016-06-10T12:33:43.294Z,25.52
2016-06-10T12:34:43.312Z,24.56
2016-06-10T12:35:43.315Z,23.79
2016-06-10T12:36:43.318Z,23.21
2016-06-10T12:37:43.978Z,24.37
2016-06-10T12:38:43.169Z,24.38
2016-06-10T12:39:44.312Z,25.83
2016-06-10T12:40:43.330Z,24.18
2016-06-10T12:41:43.802Z,25.05
2016-06-10T12:42:43.931Z,23.12
2016-06-10T12:43:43.372Z,23.4
2016-06-10T12:44:43.359Z,23.3
2016-06-10T12:45:43.378Z,25.24
2016-06-10T12:46:43.381Z,25.04
2016-06-10T12:47:43.384Z,24.67
2016-06-10T12:48:43.402Z,23.22
2016-06-10T12:49:43.421Z,23.79
2016-06-10T12:50:43.425Z,24.95
2016-06-10T12:51:43.411Z,24.27
2016-06-10T12:52:44.165Z,24.08
2016-06-10T12:53:43.417Z,24.46
2016-06-10T12:54:43.420Z,23.9
2016-06-10T12:55:43.439Z,24.85